Arklow Rogue — EIGD — position and weather

sailwx.info

Track history (hours):
 
Tides and Currents Weather Stations Pressure Air Temp Water Temp Dewpoint Dewpoint Depression Visibility Wind Speed Wind Dir Waves Ship Positions

Arklow Rogue

Last reported at 2015-Apr-19 17:31 UTC. Time now 2015-Apr-19 17:39 UTC.
Position N 52°24' W 010°03'.

Length 90 m; draft 3.4 m.

Type: Cargo ship. MMSI: 250000960.

Date/timePositionNaut miles runAvg speedWind from/ knotsBaromVisibWave heightAir tempDewpointWater temp
2015-Apr-19 17:31N 52°24' W 010°03'1212.4
2015-Apr-19 16:33N 52°17' W 010°19'1313.1
2015-Apr-19 15:33N 52°09' W 010°36'1212.1
2015-Apr-19 14:33N 51°58' W 010°45'  
2015-Apr-16 21:33N 39°16' W 009°50'1211.6
2015-Apr-16 20:33N 39°04' W 009°50'1211.7
2015-Apr-16 19:33N 38°52' W 009°51'1211.5
2015-Apr-16 18:33N 38°41' W 009°50'1111.0
2015-Apr-16 17:33N 38°30' W 009°47'1111.2
2015-Apr-16 16:33N 38°19' W 009°43'1211.5
2015-Apr-16 15:33N 38°08' W 009°40'9410.5
2015-Apr-16 06:33N 36°43' W 008°49'  
2015-Apr-13 12:33N 36°47' W 008°10'1110.6
2015-Apr-13 11:33N 36°45' W 008°23'1110.7
2015-Apr-13 10:33N 36°42' W 008°36'66 8.2
2015-Apr-13 02:33N 37°21' W 009°42'1111.6
2015-Apr-13 01:33N 37°33' W 009°46'1111.4
2015-Apr-13 00:33N 37°44' W 009°49'1110.9
2015-Apr-12 23:33N 37°54' W 009°52'1110.6
2015-Apr-12 22:33N 38°05' W 009°55'1111.0
2015-Apr-12 21:33N 38°15' W 009°58'1111.0
2015-Apr-12 20:33N 38°26' W 010°02'1111.5
2015-Apr-12 19:33N 38°37' W 010°05'1211.6
2015-Apr-12 18:31N 38°49' W 010°07'1111.1
2015-Apr-12 17:33N 38°60' W 010°07'1111.2
2015-Apr-12 16:33N 39°11' W 010°07'1111.3
2015-Apr-12 15:33N 39°22' W 010°07'  
2015-Apr-10 02:14N 50°30' W 006°59'911.5
2015-Apr-10 01:25N 50°39' W 006°55'1011.6
2015-Apr-10 00:33N 50°48' W 006°51'2811.4
2015-Apr-09 22:04N 51°15' W 006°38'611.1
2015-Apr-09 21:32N 51°21' W 006°35'3911.3
2015-Apr-09 18:05N 51°59' W 006°18'712.9
2015-Apr-09 17:33N 52°05' W 006°15'  
Track history (hours):
 
Tides and Currents Weather Stations Pressure Air Temp Water Temp Dewpoint Dewpoint Depression Visibility Wind Speed Wind Dir Waves Ship Positions

Arklow Rogue

Last reported at 2015-Apr-19 17:31 UTC. Time now 2015-Apr-19 17:39 UTC.
Position N 52°24' W 010°03'.

Length 90 m; draft 3.4 m.

Type: Cargo ship. MMSI: 250000960.

Date/timePositionNaut miles runAvg speedWind from/ knotsBaromVisibWave heightAir tempDewpointWater temp
2015-Apr-19 17:31N 52°24' W 010°03'1212.4
2015-Apr-19 16:33N 52°17' W 010°19'1313.1
2015-Apr-19 15:33N 52°09' W 010°36'1212.1
2015-Apr-19 14:33N 51°58' W 010°45'  
2015-Apr-16 21:33N 39°16' W 009°50'1211.6
2015-Apr-16 20:33N 39°04' W 009°50'1211.7
2015-Apr-16 19:33N 38°52' W 009°51'1211.5
2015-Apr-16 18:33N 38°41' W 009°50'1111.0
2015-Apr-16 17:33N 38°30' W 009°47'1111.2
2015-Apr-16 16:33N 38°19' W 009°43'1211.5
2015-Apr-16 15:33N 38°08' W 009°40'9410.5
2015-Apr-16 06:33N 36°43' W 008°49'  
2015-Apr-13 12:33N 36°47' W 008°10'1110.6
2015-Apr-13 11:33N 36°45' W 008°23'1110.7
2015-Apr-13 10:33N 36°42' W 008°36'66 8.2
2015-Apr-13 02:33N 37°21' W 009°42'1111.6
2015-Apr-13 01:33N 37°33' W 009°46'1111.4
2015-Apr-13 00:33N 37°44' W 009°49'1110.9
2015-Apr-12 23:33N 37°54' W 009°52'1110.6
2015-Apr-12 22:33N 38°05' W 009°55'1111.0
2015-Apr-12 21:33N 38°15' W 009°58'1111.0
2015-Apr-12 20:33N 38°26' W 010°02'1111.5
2015-Apr-12 19:33N 38°37' W 010°05'1211.6
2015-Apr-12 18:31N 38°49' W 010°07'1111.1
2015-Apr-12 17:33N 38°60' W 010°07'1111.2
2015-Apr-12 16:33N 39°11' W 010°07'1111.3
2015-Apr-12 15:33N 39°22' W 010°07'  
2015-Apr-10 02:14N 50°30' W 006°59'911.5
2015-Apr-10 01:25N 50°39' W 006°55'1011.6
2015-Apr-10 00:33N 50°48' W 006°51'2811.4
2015-Apr-09 22:04N 51°15' W 006°38'611.1
2015-Apr-09 21:32N 51°21' W 006°35'3911.3
2015-Apr-09 18:05N 51°59' W 006°18'712.9
2015-Apr-09 17:33N 52°05' W 006°15'  

Dump ship's entire track history